KLWB/LWB METAR and TAF weather

Enter ICAO airport designator
Station Type Date Time Source
KLWB METAR 2022/11/26 09:15 UTC NOAA

KLWB 260915Z AUTO 00000KT 7SM CLR M01/M02 A3018 RMK AO2 T10091022


Station Type Date Time Source
KLWB Decoded METAR 2022/11/26 09:15 UTC NOAA

Lewisburg / Greenbrier, WV, United States (KLWB) 37-52N 080-24W
Nov 26, 2022 - 04:15 AM EST / 2022.11.26 0915 UTC
Wind: Calm:0
Visibility: 7 mile(s):0
Sky conditions: clear
Temperature: 30.4 F (-0.9 C)
Dew Point: 28.0 F (-2.2 C)
Relative Humidity: 90%
Pressure (altimeter): 30.18 in. Hg (1022 hPa)
ob: KLWB 260915Z AUTO 00000KT 7SM CLR M01/M02 A3018 RMK AO2 T10091022
cycle: 9

Station Type Date Time Source
KLWB TAF 2022/11/26 06:22 UTC NOAA

TAF KLWB 260520Z 2606/2706 00000KT P6SM SKC
FM270000 VRB02KT P6SM BKN250

Example: see airport list